sensor_id;sensor_type;location;lat;lon;timestamp;P1;durP1;ratioP1;P2;durP2;ratioP2
142;SDS011;63667;49.046;8.468;2023-04-15T00:01:23;10.47;;;4.90;;
142;SDS011;63667;49.046;8.468;2023-04-15T00:03:50;7.47;;;4.60;;
142;SDS011;63667;49.046;8.468;2023-04-15T00:06:18;9.97;;;5.23;;
142;SDS011;63667;49.046;8.468;2023-04-15T00:08:46;10.20;;;4.70;;
142;SDS011;63667;49.046;8.468;2023-04-15T00:11:15;7.40;;;4.40;;
142;SDS011;63667;49.046;8.468;2023-04-15T00:13:43;7.53;;;4.57;;
142;SDS011;63667;49.046;8.468;2023-04-15T00:16:11;6.43;;;3.90;;
142;SDS011;63667;49.046;8.468;2023-04-15T00:18:38;9.00;;;4.53;;
142;SDS011;63667;49.046;8.468;2023-04-15T00:21:06;10.47;;;5.03;;
142;SDS011;63667;49.046;8.468;2023-04-15T00:23:34;12.53;;;5.80;;
142;SDS011;63667;49.046;8.468;2023-04-15T00:26:01;10.63;;;5.07;;
142;SDS011;63667;49.046;8.468;2023-04-15T00:28:28;11.50;;;5.37;;
142;SDS011;63667;49.046;8.468;2023-04-15T00:30:56;10.43;;;4.70;;
142;SDS011;63667;49.046;8.468;2023-04-15T00:33:24;14.03;;;5.20;;
142;SDS011;63667;49.046;8.468;2023-04-15T00:35:51;8.73;;;5.20;;
142;SDS011;63667;49.046;8.468;2023-04-15T00:38:19;8.23;;;4.70;;
142;SDS011;63667;49.046;8.468;2023-04-15T00:40:47;7.67;;;4.90;;
142;SDS011;63667;49.046;8.468;2023-04-15T00:43:13;10.60;;;4.93;;
142;SDS011;63667;49.046;8.468;2023-04-15T00:45:41;7.77;;;4.73;;
142;SDS011;63667;49.046;8.468;2023-04-15T00:48:08;11.70;;;4.87;;
142;SDS011;63667;49.046;8.468;2023-04-15T00:50:36;8.20;;;4.80;;
142;SDS011;63667;49.046;8.468;2023-04-15T00:53:04;8.80;;;5.00;;
142;SDS011;63667;49.046;8.468;2023-04-15T00:55:31;9.70;;;4.90;;
142;SDS011;63667;49.046;8.468;2023-04-15T00:57:59;11.13;;;5.10;;
142;SDS011;63667;49.046;8.468;2023-04-15T01:00:26;8.40;;;5.40;;
142;SDS011;63667;49.046;8.468;2023-04-15T01:02:53;12.77;;;5.83;;
142;SDS011;63667;49.046;8.468;2023-04-15T01:05:22;11.33;;;6.50;;
142;SDS011;63667;49.046;8.468;2023-04-15T01:07:50;14.60;;;6.13;;
142;SDS011;63667;49.046;8.468;2023-04-15T01:10:18;10.77;;;6.10;;
142;SDS011;63667;49.046;8.468;2023-04-15T01:12:46;11.57;;;5.90;;
142;SDS011;63667;49.046;8.468;2023-04-15T01:15:13;9.20;;;6.00;;
142;SDS011;63667;49.046;8.468;2023-04-15T01:17:41;10.73;;;6.47;;
142;SDS011;63667;49.046;8.468;2023-04-15T01:20:08;13.33;;;6.80;;
142;SDS011;63667;49.046;8.468;2023-04-15T01:22:36;12.37;;;6.50;;
142;SDS011;63667;49.046;8.468;2023-04-15T01:25:10;12.70;;;6.03;;
142;SDS011;63667;49.046;8.468;2023-04-15T01:27:38;10.00;;;5.83;;
142;SDS011;63667;49.046;8.468;2023-04-15T01:30:07;15.00;;;6.03;;
142;SDS011;63667;49.046;8.468;2023-04-15T01:32:35;8.80;;;5.90;;
142;SDS011;63667;49.046;8.468;2023-04-15T01:35:02;11.03;;;6.03;;
142;SDS011;63667;49.046;8.468;2023-04-15T01:37:29;15.60;;;6.90;;
142;SDS011;63667;49.046;8.468;2023-04-15T01:39:56;13.03;;;5.90;;
142;SDS011;63667;49.046;8.468;2023-04-15T01:42:24;13.60;;;7.00;;
142;SDS011;63667;49.046;8.468;2023-04-15T01:44:52;18.17;;;5.93;;
142;SDS011;63667;49.046;8.468;2023-04-15T01:47:20;16.73;;;7.27;;
142;SDS011;63667;49.046;8.468;2023-04-15T01:49:47;10.13;;;6.77;;
142;SDS011;63667;49.046;8.468;2023-04-15T01:52:15;13.17;;;6.60;;
142;SDS011;63667;49.046;8.468;2023-04-15T01:54:43;19.20;;;6.87;;
142;SDS011;63667;49.046;8.468;2023-04-15T01:57:11;13.00;;;6.80;;
142;SDS011;63667;49.046;8.468;2023-04-15T01:59:39;14.87;;;7.50;;
142;SDS011;63667;49.046;8.468;2023-04-15T02:02:07;17.93;;;7.83;;
142;SDS011;63667;49.046;8.468;2023-04-15T02:04:36;17.93;;;7.80;;
142;SDS011;63667;49.046;8.468;2023-04-15T02:07:03;13.07;;;6.70;;
142;SDS011;63667;49.046;8.468;2023-04-15T02:09:30;11.33;;;6.30;;
142;SDS011;63667;49.046;8.468;2023-04-15T02:11:57;15.00;;;7.10;;
142;SDS011;63667;49.046;8.468;2023-04-15T02:14:25;14.87;;;7.63;;
142;SDS011;63667;49.046;8.468;2023-04-15T02:16:52;12.60;;;7.00;;
142;SDS011;63667;49.046;8.468;2023-04-15T02:19:20;17.73;;;7.00;;
142;SDS011;63667;49.046;8.468;2023-04-15T02:21:47;16.33;;;7.00;;
142;SDS011;63667;49.046;8.468;2023-04-15T02:24:15;16.77;;;6.90;;
142;SDS011;63667;49.046;8.468;2023-04-15T02:26:42;14.20;;;7.20;;
142;SDS011;63667;49.046;8.468;2023-04-15T02:29:10;15.13;;;7.83;;
142;SDS011;63667;49.046;8.468;2023-04-15T02:31:38;11.53;;;6.40;;
142;SDS011;63667;49.046;8.468;2023-04-15T02:34:06;10.23;;;5.30;;
142;SDS011;63667;49.046;8.468;2023-04-15T02:36:33;10.57;;;6.20;;
142;SDS011;63667;49.046;8.468;2023-04-15T02:39:01;12.17;;;6.50;;
142;SDS011;63667;49.046;8.468;2023-04-15T02:41:29;12.97;;;6.43;;
142;SDS011;63667;49.046;8.468;2023-04-15T02:43:57;15.97;;;8.07;;
142;SDS011;63667;49.046;8.468;2023-04-15T02:46:24;14.73;;;7.83;;
142;SDS011;63667;49.046;8.468;2023-04-15T02:48:52;13.93;;;8.03;;
142;SDS011;63667;49.046;8.468;2023-04-15T02:51:20;23.67;;;8.67;;
142;SDS011;63667;49.046;8.468;2023-04-15T02:53:48;17.60;;;8.53;;
142;SDS011;63667;49.046;8.468;2023-04-15T02:56:15;14.63;;;7.53;;
142;SDS011;63667;49.046;8.468;2023-04-15T02:58:42;15.53;;;8.10;;
142;SDS011;63667;49.046;8.468;2023-04-15T03:01:10;16.53;;;7.87;;
142;SDS011;63667;49.046;8.468;2023-04-15T03:03:38;13.17;;;7.37;;
142;SDS011;63667;49.046;8.468;2023-04-15T03:06:05;16.27;;;7.60;;
142;SDS011;63667;49.046;8.468;2023-04-15T03:08:33;15.10;;;7.57;;
142;SDS011;63667;49.046;8.468;2023-04-15T03:11:01;15.80;;;7.80;;
142;SDS011;63667;49.046;8.468;2023-04-15T03:13:28;13.83;;;7.23;;
142;SDS011;63667;49.046;8.468;2023-04-15T03:15:56;18.50;;;7.73;;
142;SDS011;63667;49.046;8.468;2023-04-15T03:18:24;14.60;;;7.30;;
142;SDS011;63667;49.046;8.468;2023-04-15T03:20:51;15.23;;;6.87;;
142;SDS011;63667;49.046;8.468;2023-04-15T03:23:18;13.57;;;7.77;;
142;SDS011;63667;49.046;8.468;2023-04-15T03:25:46;18.30;;;8.27;;
142;SDS011;63667;49.046;8.468;2023-04-15T03:28:13;21.43;;;8.07;;
142;SDS011;63667;49.046;8.468;2023-04-15T03:30:40;17.40;;;7.73;;
142;SDS011;63667;49.046;8.468;2023-04-15T03:33:08;11.67;;;7.23;;
142;SDS011;63667;49.046;8.468;2023-04-15T03:35:36;15.57;;;7.27;;
142;SDS011;63667;49.046;8.468;2023-04-15T03:38:04;13.83;;;7.07;;
142;SDS011;63667;49.046;8.468;2023-04-15T03:40:31;13.27;;;7.40;;
142;SDS011;63667;49.046;8.468;2023-04-15T03:42:59;11.30;;;7.60;;
142;SDS011;63667;49.046;8.468;2023-04-15T03:45:26;14.27;;;7.17;;
142;SDS011;63667;49.046;8.468;2023-04-15T03:47:54;15.60;;;7.23;;
142;SDS011;63667;49.046;8.468;2023-04-15T03:50:22;20.40;;;7.80;;
142;SDS011;63667;49.046;8.468;2023-04-15T03:52:49;17.90;;;7.77;;
142;SDS011;63667;49.046;8.468;2023-04-15T03:55:17;15.00;;;7.40;;
142;SDS011;63667;49.046;8.468;2023-04-15T03:57:45;11.47;;;7.00;;
142;SDS011;63667;49.046;8.468;2023-04-15T04:00:12;14.40;;;6.97;;
142;SDS011;63667;49.046;8.468;2023-04-15T04:02:38;14.37;;;6.90;;
142;SDS011;63667;49.046;8.468;2023-04-15T04:05:06;16.80;;;6.90;;
142;SDS011;63667;49.046;8.468;2023-04-15T04:07:34;14.70;;;7.20;;
142;SDS011;63667;49.046;8.468;2023-04-15T04:10:01;13.20;;;7.60;;
142;SDS011;63667;49.046;8.468;2023-04-15T04:12:28;16.47;;;7.57;;
142;SDS011;63667;49.046;8.468;2023-04-15T04:14:56;14.10;;;7.07;;
142;SDS011;63667;49.046;8.468;2023-04-15T04:17:24;14.50;;;8.27;;
142;SDS011;63667;49.046;8.468;2023-04-15T04:19:51;14.77;;;8.00;;
142;SDS011;63667;49.046;8.468;2023-04-15T04:22:21;13.40;;;7.63;;
142;SDS011;63667;49.046;8.468;2023-04-15T04:24:49;15.40;;;7.53;;
142;SDS011;63667;49.046;8.468;2023-04-15T04:27:16;15.83;;;7.57;;
142;SDS011;63667;49.046;8.468;2023-04-15T04:29:43;12.17;;;7.67;;
142;SDS011;63667;49.046;8.468;2023-04-15T04:32:12;14.57;;;8.17;;
142;SDS011;63667;49.046;8.468;2023-04-15T04:34:40;13.10;;;7.30;;
142;SDS011;63667;49.046;8.468;2023-04-15T04:37:07;16.10;;;7.87;;
142;SDS011;63667;49.046;8.468;2023-04-15T04:39:35;10.40;;;6.70;;
142;SDS011;63667;49.046;8.468;2023-04-15T04:42:02;12.53;;;7.90;;
142;SDS011;63667;49.046;8.468;2023-04-15T04:44:30;15.27;;;7.00;;
142;SDS011;63667;49.046;8.468;2023-04-15T04:46:57;14.20;;;6.67;;
142;SDS011;63667;49.046;8.468;2023-04-15T04:49:25;15.43;;;7.63;;
142;SDS011;63667;49.046;8.468;2023-04-15T04:51:52;10.87;;;6.97;;
142;SDS011;63667;49.046;8.468;2023-04-15T04:54:20;14.60;;;7.20;;
142;SDS011;63667;49.046;8.468;2023-04-15T04:56:47;13.03;;;7.37;;
142;SDS011;63667;49.046;8.468;2023-04-15T04:59:15;14.47;;;6.63;;
142;SDS011;63667;49.046;8.468;2023-04-15T05:01:42;14.57;;;7.90;;
142;SDS011;63667;49.046;8.468;2023-04-15T05:04:10;13.00;;;6.67;;
142;SDS011;63667;49.046;8.468;2023-04-15T05:06:37;10.27;;;6.43;;
142;SDS011;63667;49.046;8.468;2023-04-15T05:09:05;16.10;;;7.17;;
142;SDS011;63667;49.046;8.468;2023-04-15T05:11:32;17.90;;;7.50;;
142;SDS011;63667;49.046;8.468;2023-04-15T05:13:59;13.50;;;7.67;;
142;SDS011;63667;49.046;8.468;2023-04-15T05:16:27;13.73;;;7.23;;
142;SDS011;63667;49.046;8.468;2023-04-15T05:18:54;13.10;;;7.00;;
142;SDS011;63667;49.046;8.468;2023-04-15T05:21:22;13.23;;;7.70;;
142;SDS011;63667;49.046;8.468;2023-04-15T05:23:49;12.73;;;7.40;;
142;SDS011;63667;49.046;8.468;2023-04-15T05:26:17;15.20;;;7.43;;
142;SDS011;63667;49.046;8.468;2023-04-15T05:28:44;16.90;;;7.27;;
142;SDS011;63667;49.046;8.468;2023-04-15T05:31:12;11.87;;;6.13;;
142;SDS011;63667;49.046;8.468;2023-04-15T05:33:41;16.50;;;7.70;;
142;SDS011;63667;49.046;8.468;2023-04-15T05:36:08;15.47;;;7.10;;
142;SDS011;63667;49.046;8.468;2023-04-15T05:38:37;11.93;;;7.10;;
142;SDS011;63667;49.046;8.468;2023-04-15T05:41:04;16.30;;;8.30;;
142;SDS011;63667;49.046;8.468;2023-04-15T05:43:32;16.03;;;8.20;;
142;SDS011;63667;49.046;8.468;2023-04-15T05:45:59;19.67;;;9.63;;
142;SDS011;63667;49.046;8.468;2023-04-15T05:48:26;22.30;;;9.03;;
142;SDS011;63667;49.046;8.468;2023-04-15T05:50:54;13.90;;;7.70;;
142;SDS011;63667;49.046;8.468;2023-04-15T05:53:21;12.53;;;7.60;;
142;SDS011;63667;49.046;8.468;2023-04-15T05:55:48;15.73;;;7.57;;
142;SDS011;63667;49.046;8.468;2023-04-15T05:58:15;14.50;;;7.10;;
142;SDS011;63667;49.046;8.468;2023-04-15T06:00:42;15.83;;;7.10;;
142;SDS011;63667;49.046;8.468;2023-04-15T06:03:10;16.63;;;7.47;;
142;SDS011;63667;49.046;8.468;2023-04-15T06:05:37;10.03;;;6.30;;
142;SDS011;63667;49.046;8.468;2023-04-15T06:08:05;19.20;;;6.93;;
142;SDS011;63667;49.046;8.468;2023-04-15T06:10:33;22.10;;;7.73;;
142;SDS011;63667;49.046;8.468;2023-04-15T06:13:01;10.73;;;7.00;;
142;SDS011;63667;49.046;8.468;2023-04-15T06:15:28;11.23;;;6.80;;
142;SDS011;63667;49.046;8.468;2023-04-15T06:17:55;15.90;;;7.10;;
142;SDS011;63667;49.046;8.468;2023-04-15T06:20:24;12.63;;;6.50;;
142;SDS011;63667;49.046;8.468;2023-04-15T06:22:50;16.00;;;7.47;;
142;SDS011;63667;49.046;8.468;2023-04-15T06:25:17;14.00;;;7.10;;
142;SDS011;63667;49.046;8.468;2023-04-15T06:27:44;10.57;;;7.10;;
142;SDS011;63667;49.046;8.468;2023-04-15T06:30:11;17.33;;;7.00;;
142;SDS011;63667;49.046;8.468;2023-04-15T06:32:37;12.77;;;6.80;;
142;SDS011;63667;49.046;8.468;2023-04-15T06:35:04;15.67;;;7.63;;
142;SDS011;63667;49.046;8.468;2023-04-15T06:37:31;16.93;;;8.00;;
142;SDS011;63667;49.046;8.468;2023-04-15T06:39:57;12.90;;;7.40;;
142;SDS011;63667;49.046;8.468;2023-04-15T06:42:23;13.30;;;6.50;;
142;SDS011;63667;49.046;8.468;2023-04-15T06:44:50;8.73;;;5.73;;
142;SDS011;63667;49.046;8.468;2023-04-15T06:47:17;11.40;;;6.37;;
142;SDS011;63667;49.046;8.468;2023-04-15T06:49:44;9.47;;;5.97;;
142;SDS011;63667;49.046;8.468;2023-04-15T06:52:12;10.73;;;6.10;;
142;SDS011;63667;49.046;8.468;2023-04-15T06:54:38;12.57;;;6.30;;
142;SDS011;63667;49.046;8.468;2023-04-15T06:57:05;9.57;;;6.17;;
142;SDS011;63667;49.046;8.468;2023-04-15T06:59:34;11.60;;;5.97;;
142;SDS011;63667;49.046;8.468;2023-04-15T07:02:02;14.97;;;5.80;;
142;SDS011;63667;49.046;8.468;2023-04-15T07:04:29;12.67;;;6.30;;
142;SDS011;63667;49.046;8.468;2023-04-15T07:06:57;11.73;;;5.87;;
142;SDS011;63667;49.046;8.468;2023-04-15T07:09:26;14.67;;;6.80;;
142;SDS011;63667;49.046;8.468;2023-04-15T07:11:53;9.67;;;5.80;;
142;SDS011;63667;49.046;8.468;2023-04-15T07:14:20;12.00;;;6.50;;
142;SDS011;63667;49.046;8.468;2023-04-15T07:16:48;11.40;;;6.37;;
142;SDS011;63667;49.046;8.468;2023-04-15T07:19:15;11.53;;;6.00;;
142;SDS011;63667;49.046;8.468;2023-04-15T07:21:41;6.87;;;4.70;;
142;SDS011;63667;49.046;8.468;2023-04-15T07:24:09;8.97;;;4.60;;
142;SDS011;63667;49.046;8.468;2023-04-15T07:26:35;10.57;;;4.30;;
142;SDS011;63667;49.046;8.468;2023-04-15T07:29:02;7.30;;;4.50;;
142;SDS011;63667;49.046;8.468;2023-04-15T07:31:30;6.43;;;4.47;;
142;SDS011;63667;49.046;8.468;2023-04-15T07:33:57;9.53;;;4.50;;
142;SDS011;63667;49.046;8.468;2023-04-15T07:36:24;10.03;;;4.50;;
142;SDS011;63667;49.046;8.468;2023-04-15T07:38:52;6.67;;;4.63;;
142;SDS011;63667;49.046;8.468;2023-04-15T07:41:20;14.87;;;5.00;;
142;SDS011;63667;49.046;8.468;2023-04-15T07:43:47;8.47;;;5.10;;
142;SDS011;63667;49.046;8.468;2023-04-15T07:46:14;7.23;;;4.20;;
142;SDS011;63667;49.046;8.468;2023-04-15T07:48:41;6.80;;;4.70;;
142;SDS011;63667;49.046;8.468;2023-04-15T07:51:08;7.17;;;4.70;;
142;SDS011;63667;49.046;8.468;2023-04-15T07:53:36;11.10;;;4.97;;
142;SDS011;63667;49.046;8.468;2023-04-15T07:56:03;14.30;;;4.87;;
142;SDS011;63667;49.046;8.468;2023-04-15T07:58:32;10.30;;;4.90;;
142;SDS011;63667;49.046;8.468;2023-04-15T08:00:59;6.80;;;4.50;;
142;SDS011;63667;49.046;8.468;2023-04-15T08:03:26;7.23;;;4.80;;
142;SDS011;63667;49.046;8.468;2023-04-15T08:05:54;10.40;;;4.97;;
142;SDS011;63667;49.046;8.468;2023-04-15T08:08:22;11.20;;;5.33;;
142;SDS011;63667;49.046;8.468;2023-04-15T08:10:49;11.30;;;5.77;;
142;SDS011;63667;49.046;8.468;2023-04-15T08:13:16;9.10;;;5.50;;
142;SDS011;63667;49.046;8.468;2023-04-15T08:15:44;9.90;;;5.47;;
142;SDS011;63667;49.046;8.468;2023-04-15T08:18:11;8.70;;;5.57;;
142;SDS011;63667;49.046;8.468;2023-04-15T08:20:39;10.90;;;5.93;;
142;SDS011;63667;49.046;8.468;2023-04-15T08:23:06;11.67;;;5.83;;
142;SDS011;63667;49.046;8.468;2023-04-15T08:25:33;9.80;;;5.83;;
142;SDS011;63667;49.046;8.468;2023-04-15T08:28:03;9.27;;;5.97;;
142;SDS011;63667;49.046;8.468;2023-04-15T08:30:31;10.80;;;5.90;;
142;SDS011;63667;49.046;8.468;2023-04-15T08:32:59;13.93;;;6.20;;
142;SDS011;63667;49.046;8.468;2023-04-15T08:35:26;10.03;;;5.90;;
142;SDS011;63667;49.046;8.468;2023-04-15T08:37:54;8.17;;;5.63;;
142;SDS011;63667;49.046;8.468;2023-04-15T08:40:21;14.73;;;6.20;;
142;SDS011;63667;49.046;8.468;2023-04-15T08:42:49;11.50;;;7.07;;
142;SDS011;63667;49.046;8.468;2023-04-15T08:45:18;12.00;;;6.40;;
142;SDS011;63667;49.046;8.468;2023-04-15T08:47:46;14.30;;;7.20;;
142;SDS011;63667;49.046;8.468;2023-04-15T08:50:15;12.00;;;7.10;;
142;SDS011;63667;49.046;8.468;2023-04-15T08:52:43;14.83;;;7.30;;
142;SDS011;63667;49.046;8.468;2023-04-15T08:55:11;10.40;;;6.23;;
142;SDS011;63667;49.046;8.468;2023-04-15T08:57:40;12.77;;;6.10;;
142;SDS011;63667;49.046;8.468;2023-04-15T09:00:08;11.03;;;5.97;;
142;SDS011;63667;49.046;8.468;2023-04-15T09:02:37;12.87;;;7.03;;
142;SDS011;63667;49.046;8.468;2023-04-15T09:05:04;22.13;;;7.40;;
142;SDS011;63667;49.046;8.468;2023-04-15T09:07:33;13.13;;;7.20;;
142;SDS011;63667;49.046;8.468;2023-04-15T09:10:02;14.03;;;7.40;;
142;SDS011;63667;49.046;8.468;2023-04-15T09:12:30;16.23;;;6.93;;
142;SDS011;63667;49.046;8.468;2023-04-15T09:15:00;13.83;;;5.90;;
142;SDS011;63667;49.046;8.468;2023-04-15T09:17:28;9.23;;;6.00;;
142;SDS011;63667;49.046;8.468;2023-04-15T09:22:35;9.30;;;5.80;;
142;SDS011;63667;49.046;8.468;2023-04-15T09:25:03;10.77;;;6.00;;
142;SDS011;63667;49.046;8.468;2023-04-15T09:27:32;11.40;;;5.10;;
142;SDS011;63667;49.046;8.468;2023-04-15T09:30:05;7.10;;;4.77;;
142;SDS011;63667;49.046;8.468;2023-04-15T09:32:33;9.20;;;5.17;;
142;SDS011;63667;49.046;8.468;2023-04-15T09:35:09;7.63;;;5.10;;
142;SDS011;63667;49.046;8.468;2023-04-15T09:37:37;12.57;;;5.30;;
142;SDS011;63667;49.046;8.468;2023-04-15T09:40:04;12.00;;;5.20;;
142;SDS011;63667;49.046;8.468;2023-04-15T09:42:33;8.90;;;5.53;;
142;SDS011;63667;49.046;8.468;2023-04-15T09:45:10;7.87;;;4.97;;
142;SDS011;63667;49.046;8.468;2023-04-15T09:47:37;10.23;;;5.77;;
142;SDS011;63667;49.046;8.468;2023-04-15T09:50:05;10.90;;;5.70;;
142;SDS011;63667;49.046;8.468;2023-04-15T09:52:33;10.57;;;5.80;;
142;SDS011;63667;49.046;8.468;2023-04-15T09:55:08;9.40;;;6.27;;
142;SDS011;63667;49.046;8.468;2023-04-15T09:57:35;8.70;;;6.17;;
142;SDS011;63667;49.046;8.468;2023-04-15T10:00:03;13.70;;;6.80;;
142;SDS011;63667;49.046;8.468;2023-04-15T10:02:30;12.43;;;7.30;;
142;SDS011;63667;49.046;8.468;2023-04-15T10:04:57;9.33;;;6.50;;
142;SDS011;63667;49.046;8.468;2023-04-15T10:07:25;13.37;;;6.53;;
142;SDS011;63667;49.046;8.468;2023-04-15T10:09:53;11.90;;;6.83;;
142;SDS011;63667;49.046;8.468;2023-04-15T10:12:21;9.10;;;6.40;;
142;SDS011;63667;49.046;8.468;2023-04-15T10:14:52;11.97;;;6.73;;
142;SDS011;63667;49.046;8.468;2023-04-15T10:17:22;10.33;;;6.13;;
142;SDS011;63667;49.046;8.468;2023-04-15T10:19:53;11.13;;;6.80;;
142;SDS011;63667;49.046;8.468;2023-04-15T10:22:23;19.40;;;8.20;;
142;SDS011;63667;49.046;8.468;2023-04-15T10:24:52;14.83;;;7.27;;
142;SDS011;63667;49.046;8.468;2023-04-15T10:27:20;15.07;;;6.80;;
142;SDS011;63667;49.046;8.468;2023-04-15T10:29:48;10.60;;;6.97;;
142;SDS011;63667;49.046;8.468;2023-04-15T10:32:16;10.60;;;7.50;;
142;SDS011;63667;49.046;8.468;2023-04-15T10:34:44;13.27;;;8.17;;
142;SDS011;63667;49.046;8.468;2023-04-15T10:37:12;18.03;;;7.27;;
142;SDS011;63667;49.046;8.468;2023-04-15T10:39:39;13.47;;;7.47;;
142;SDS011;63667;49.046;8.468;2023-04-15T10:42:08;12.23;;;6.80;;
142;SDS011;63667;49.046;8.468;2023-04-15T10:44:36;12.17;;;6.30;;
142;SDS011;63667;49.046;8.468;2023-04-15T10:47:05;13.93;;;7.30;;
142;SDS011;63667;49.046;8.468;2023-04-15T10:49:33;11.37;;;6.67;;
142;SDS011;63667;49.046;8.468;2023-04-15T10:52:00;12.00;;;6.53;;
142;SDS011;63667;49.046;8.468;2023-04-15T11:05:10;11.27;;;5.90;;
142;SDS011;63667;49.046;8.468;2023-04-15T11:07:38;11.97;;;6.10;;
142;SDS011;63667;49.046;8.468;2023-04-15T11:12:56;8.87;;;6.20;;
142;SDS011;63667;49.046;8.468;2023-04-15T11:18:09;9.00;;;5.87;;
142;SDS011;63667;49.046;8.468;2023-04-15T11:20:40;17.60;;;6.83;;
142;SDS011;63667;49.046;8.468;2023-04-15T11:23:07;13.80;;;6.93;;
142;SDS011;63667;49.046;8.468;2023-04-15T11:25:35;12.73;;;5.73;;
142;SDS011;63667;49.046;8.468;2023-04-15T11:28:02;14.33;;;7.23;;
142;SDS011;63667;49.046;8.468;2023-04-15T11:30:33;17.10;;;7.93;;
142;SDS011;63667;49.046;8.468;2023-04-15T11:33:16;10.67;;;7.17;;
142;SDS011;63667;49.046;8.468;2023-04-15T11:35:44;11.93;;;6.53;;
142;SDS011;63667;49.046;8.468;2023-04-15T11:38:12;8.40;;;6.30;;
142;SDS011;63667;49.046;8.468;2023-04-15T11:40:40;7.10;;;5.53;;
142;SDS011;63667;49.046;8.468;2023-04-15T11:43:15;9.33;;;6.33;;
142;SDS011;63667;49.046;8.468;2023-04-15T11:45:52;13.63;;;6.50;;
142;SDS011;63667;49.046;8.468;2023-04-15T11:48:23;9.50;;;6.27;;
142;SDS011;63667;49.046;8.468;2023-04-15T11:53:21;8.13;;;5.90;;
142;SDS011;63667;49.046;8.468;2023-04-15T11:55:49;8.17;;;5.70;;
142;SDS011;63667;49.046;8.468;2023-04-15T11:58:17;10.70;;;5.50;;
142;SDS011;63667;49.046;8.468;2023-04-15T12:00:49;8.93;;;5.37;;
142;SDS011;63667;49.046;8.468;2023-04-15T12:03:24;11.50;;;6.40;;
142;SDS011;63667;49.046;8.468;2023-04-15T12:11:17;8.90;;;5.90;;
142;SDS011;63667;49.046;8.468;2023-04-15T12:13:45;11.13;;;6.10;;
142;SDS011;63667;49.046;8.468;2023-04-15T12:16:16;10.63;;;5.77;;
142;SDS011;63667;49.046;8.468;2023-04-15T12:18:44;7.50;;;6.20;;
142;SDS011;63667;49.046;8.468;2023-04-15T12:21:12;12.47;;;7.27;;
142;SDS011;63667;49.046;8.468;2023-04-15T12:23:39;8.17;;;5.37;;
142;SDS011;63667;49.046;8.468;2023-04-15T12:26:14;16.13;;;6.40;;
142;SDS011;63667;49.046;8.468;2023-04-15T12:28:42;9.57;;;5.27;;
142;SDS011;63667;49.046;8.468;2023-04-15T12:31:10;8.10;;;5.30;;
142;SDS011;63667;49.046;8.468;2023-04-15T12:33:38;5.80;;;5.00;;
142;SDS011;63667;49.046;8.468;2023-04-15T12:36:05;9.63;;;5.33;;
142;SDS011;63667;49.046;8.468;2023-04-15T12:38:33;6.30;;;4.50;;
142;SDS011;63667;49.046;8.468;2023-04-15T12:41:00;8.10;;;5.23;;
142;SDS011;63667;49.046;8.468;2023-04-15T12:43:27;6.50;;;5.00;;
142;SDS011;63667;49.046;8.468;2023-04-15T12:45:54;9.00;;;4.80;;
142;SDS011;63667;49.046;8.468;2023-04-15T12:48:21;6.10;;;5.17;;
142;SDS011;63667;49.046;8.468;2023-04-15T12:50:49;8.30;;;4.93;;
142;SDS011;63667;49.046;8.468;2023-04-15T12:53:15;7.50;;;4.83;;
142;SDS011;63667;49.046;8.468;2023-04-15T12:55:43;7.80;;;5.40;;
142;SDS011;63667;49.046;8.468;2023-04-15T12:58:10;5.53;;;4.73;;
142;SDS011;63667;49.046;8.468;2023-04-15T13:00:38;11.87;;;5.00;;
142;SDS011;63667;49.046;8.468;2023-04-15T13:03:05;11.97;;;5.80;;
142;SDS011;63667;49.046;8.468;2023-04-15T13:05:33;12.10;;;5.33;;
142;SDS011;63667;49.046;8.468;2023-04-15T13:08:02;5.93;;;5.00;;
142;SDS011;63667;49.046;8.468;2023-04-15T13:10:28;10.20;;;6.20;;
142;SDS011;63667;49.046;8.468;2023-04-15T13:12:56;8.63;;;5.20;;
142;SDS011;63667;49.046;8.468;2023-04-15T13:15:23;12.33;;;6.30;;
142;SDS011;63667;49.046;8.468;2023-04-15T13:17:50;8.17;;;5.57;;
142;SDS011;63667;49.046;8.468;2023-04-15T13:20:18;6.53;;;5.37;;
142;SDS011;63667;49.046;8.468;2023-04-15T13:22:46;7.50;;;5.53;;
142;SDS011;63667;49.046;8.468;2023-04-15T13:25:14;11.13;;;6.17;;
142;SDS011;63667;49.046;8.468;2023-04-15T13:27:41;8.80;;;6.10;;
142;SDS011;63667;49.046;8.468;2023-04-15T13:30:08;12.33;;;6.20;;
142;SDS011;63667;49.046;8.468;2023-04-15T13:32:36;11.40;;;6.63;;
142;SDS011;63667;49.046;8.468;2023-04-15T13:35:04;15.33;;;6.70;;
142;SDS011;63667;49.046;8.468;2023-04-15T13:37:31;11.07;;;5.87;;
142;SDS011;63667;49.046;8.468;2023-04-15T13:39:58;10.50;;;5.37;;
142;SDS011;63667;49.046;8.468;2023-04-15T13:42:26;11.07;;;6.00;;
142;SDS011;63667;49.046;8.468;2023-04-15T13:44:53;8.30;;;5.93;;
142;SDS011;63667;49.046;8.468;2023-04-15T13:47:21;11.87;;;6.13;;
142;SDS011;63667;49.046;8.468;2023-04-15T13:49:49;10.87;;;6.07;;
142;SDS011;63667;49.046;8.468;2023-04-15T13:52:17;10.33;;;6.23;;
142;SDS011;63667;49.046;8.468;2023-04-15T13:54:44;9.30;;;6.10;;
142;SDS011;63667;49.046;8.468;2023-04-15T13:57:12;11.53;;;6.17;;
142;SDS011;63667;49.046;8.468;2023-04-15T13:59:40;11.23;;;6.20;;
142;SDS011;63667;49.046;8.468;2023-04-15T14:02:07;10.97;;;6.40;;
142;SDS011;63667;49.046;8.468;2023-04-15T14:04:34;15.87;;;5.93;;
142;SDS011;63667;49.046;8.468;2023-04-15T14:07:01;11.53;;;5.63;;
142;SDS011;63667;49.046;8.468;2023-04-15T14:09:29;9.33;;;5.50;;
142;SDS011;63667;49.046;8.468;2023-04-15T14:11:56;6.97;;;4.60;;
142;SDS011;63667;49.046;8.468;2023-04-15T14:14:24;7.80;;;4.63;;
142;SDS011;63667;49.046;8.468;2023-04-15T14:16:51;6.00;;;4.30;;
142;SDS011;63667;49.046;8.468;2023-04-15T14:19:19;6.33;;;4.60;;
142;SDS011;63667;49.046;8.468;2023-04-15T14:21:47;5.27;;;3.90;;
142;SDS011;63667;49.046;8.468;2023-04-15T14:24:14;8.83;;;5.00;;
142;SDS011;63667;49.046;8.468;2023-04-15T14:26:41;7.80;;;4.80;;
142;SDS011;63667;49.046;8.468;2023-04-15T14:29:09;7.63;;;5.20;;
142;SDS011;63667;49.046;8.468;2023-04-15T14:31:36;7.07;;;3.90;;
142;SDS011;63667;49.046;8.468;2023-04-15T14:34:04;5.17;;;4.10;;
142;SDS011;63667;49.046;8.468;2023-04-15T14:36:31;8.00;;;4.60;;
142;SDS011;63667;49.046;8.468;2023-04-15T14:38:59;5.63;;;4.40;;
142;SDS011;63667;49.046;8.468;2023-04-15T14:41:26;6.00;;;4.00;;
142;SDS011;63667;49.046;8.468;2023-04-15T14:43:54;5.30;;;3.90;;
142;SDS011;63667;49.046;8.468;2023-04-15T14:46:21;8.90;;;3.80;;
142;SDS011;63667;49.046;8.468;2023-04-15T14:48:49;6.67;;;4.13;;
142;SDS011;63667;49.046;8.468;2023-04-15T14:51:16;9.13;;;3.93;;
142;SDS011;63667;49.046;8.468;2023-04-15T14:53:44;7.50;;;3.33;;
142;SDS011;63667;49.046;8.468;2023-04-15T14:56:12;4.03;;;3.20;;
142;SDS011;63667;49.046;8.468;2023-04-15T14:58:39;3.97;;;3.10;;
142;SDS011;63667;49.046;8.468;2023-04-15T15:01:06;4.10;;;3.37;;
142;SDS011;63667;49.046;8.468;2023-04-15T15:03:33;5.63;;;3.33;;
142;SDS011;63667;49.046;8.468;2023-04-15T15:06:01;11.73;;;3.13;;
142;SDS011;63667;49.046;8.468;2023-04-15T15:08:28;5.23;;;2.70;;
142;SDS011;63667;49.046;8.468;2023-04-15T15:10:55;4.00;;;2.73;;
142;SDS011;63667;49.046;8.468;2023-04-15T15:13:23;5.30;;;2.83;;
142;SDS011;63667;49.046;8.468;2023-04-15T15:15:50;5.90;;;2.90;;
142;SDS011;63667;49.046;8.468;2023-04-15T15:18:17;3.23;;;2.77;;
142;SDS011;63667;49.046;8.468;2023-04-15T15:20:44;7.70;;;3.13;;
142;SDS011;63667;49.046;8.468;2023-04-15T15:23:11;6.23;;;2.40;;
142;SDS011;63667;49.046;8.468;2023-04-15T15:25:38;6.17;;;2.30;;
142;SDS011;63667;49.046;8.468;2023-04-15T15:28:06;4.67;;;2.57;;
142;SDS011;63667;49.046;8.468;2023-04-15T15:30:33;7.00;;;2.97;;
142;SDS011;63667;49.046;8.468;2023-04-15T15:33:01;8.20;;;2.53;;
142;SDS011;63667;49.046;8.468;2023-04-15T15:35:28;3.23;;;2.20;;